createdAt,value
2022-11-16T18:36:22.368Z,10.42
2022-11-16T18:37:22.193Z,10.39
2022-11-16T18:38:22.138Z,10.36
2022-11-16T18:39:22.082Z,10.39
2022-11-16T18:40:22.033Z,10.34
2022-11-16T18:41:21.980Z,10.36
2022-11-16T18:42:21.932Z,10.45
2022-11-16T18:43:21.883Z,10.45
2022-11-16T18:44:21.841Z,10.42
2022-11-16T18:45:25.013Z,10.38
2022-11-16T18:46:21.737Z,10.45
2022-11-16T18:49:48.277Z,10.48
2022-11-16T18:50:48.232Z,10.46
2022-11-16T18:51:48.292Z,10.48
2022-11-16T18:52:48.139Z,10.46
2022-11-16T18:53:48.100Z,10.53
2022-11-16T18:54:48.041Z,10.45
2022-11-16T18:55:47.993Z,10.45
2022-11-16T18:56:47.987Z,10.46
2022-11-16T18:57:51.126Z,10.46
2022-11-16T18:58:50.763Z,10.46
2022-11-16T18:59:47.806Z,10.46
2022-11-16T19:00:47.807Z,10.55
2022-11-16T19:01:47.714Z,10.49
2022-11-16T19:02:47.669Z,10.48
2022-11-16T19:03:47.620Z,10.48
2022-11-16T21:48:57.196Z,11.96
2022-11-16T21:50:30.122Z,12.05
2022-11-16T21:50:56.931Z,12.00
2022-11-16T21:51:56.893Z,11.95
2022-11-16T21:52:56.865Z,12.03
2022-11-16T21:53:56.818Z,11.91
2022-11-16T21:54:56.949Z,12.03
2022-11-16T21:55:56.689Z,12.03
2022-11-16T21:56:56.643Z,12.03
2022-11-16T21:57:56.598Z,12.02
2022-11-16T21:58:56.556Z,11.99
2022-11-16T21:59:56.522Z,12.00
2022-11-16T22:00:56.603Z,12.08
2022-11-16T22:01:56.460Z,11.93
2022-11-16T22:02:56.363Z,11.99
2022-11-16T22:03:56.318Z,12.08
2022-11-16T22:04:56.295Z,12.08
2022-11-16T22:05:56.227Z,12.07
2022-11-16T22:06:56.266Z,12.17
2022-11-16T22:07:56.136Z,11.99
2022-11-16T22:08:56.087Z,12.05
2022-11-16T22:09:56.043Z,12.05
2022-11-16T22:10:55.997Z,12.05
2022-11-16T22:11:57.881Z,12.12
2022-11-16T22:12:55.903Z,12.12
2022-11-16T22:13:55.870Z,12.08
2022-11-16T22:14:55.811Z,12.12
2022-11-16T22:15:55.766Z,12.17
2022-11-16T22:16:55.715Z,12.12
2022-11-16T22:17:55.668Z,12.20
2022-11-16T22:18:55.623Z,12.17
2022-11-16T22:19:55.579Z,12.20
2022-11-16T22:20:55.612Z,12.18
2022-11-16T22:21:55.487Z,12.21
2022-11-16T22:22:55.436Z,12.12
2022-11-16T22:23:55.393Z,12.12
2022-11-16T22:24:55.345Z,12.14
2022-11-16T22:25:55.305Z,12.15
2022-11-16T22:26:55.252Z,12.15
2022-11-16T22:28:55.157Z,12.12
2022-11-16T22:29:55.114Z,12.14
2022-11-16T22:30:55.065Z,12.12
2022-11-16T22:31:55.024Z,12.14
2022-11-16T22:32:54.974Z,12.14
2022-11-16T22:33:54.932Z,12.20
2022-11-16T22:34:54.885Z,12.18
2022-11-16T22:35:54.837Z,12.14
2022-11-16T22:36:54.810Z,12.21
2022-11-16T22:37:54.742Z,12.17
2022-11-16T22:38:54.694Z,12.21
2022-11-16T22:39:54.650Z,12.18
2022-11-16T22:40:54.604Z,12.18
2022-11-16T22:41:54.557Z,12.20
2022-11-16T22:42:54.713Z,12.28
2022-11-16T22:43:54.465Z,12.20
2022-11-16T22:44:54.422Z,12.28
2022-11-16T22:45:54.375Z,12.29
2022-11-16T22:46:54.326Z,12.21
2022-11-16T22:47:55.036Z,12.28
2022-11-16T22:48:54.235Z,12.25
2022-11-16T22:49:54.188Z,12.25
2022-11-16T22:50:54.141Z,12.25
2022-11-16T22:51:54.094Z,12.32
2022-11-16T22:52:54.161Z,12.25
2022-11-16T22:53:54.002Z,12.28
2022-11-16T22:54:53.957Z,12.20
2022-11-16T22:55:53.908Z,12.30
2022-11-16T22:56:53.863Z,12.23
2022-11-16T22:57:53.816Z,12.30
2022-11-16T22:58:53.768Z,12.21
2022-11-16T22:59:53.740Z,12.25
2022-11-16T23:00:53.674Z,12.20
2022-11-16T23:01:53.634Z,12.33
2022-11-16T23:02:53.619Z,12.28
2022-11-16T23:03:53.657Z,12.33
2022-11-16T23:04:53.498Z,12.30
2022-11-16T23:05:53.448Z,12.28
2022-11-16T23:06:53.443Z,12.26
2022-11-16T23:07:53.356Z,12.30
2022-11-16T23:08:53.420Z,12.32
2022-11-16T23:09:53.260Z,12.30
2022-11-16T23:10:53.215Z,12.35
2022-11-16T23:11:53.172Z,12.30
2022-11-16T23:12:53.119Z,12.30
2022-11-16T23:13:53.079Z,12.29
2022-11-16T23:14:53.031Z,12.32
2022-11-16T23:15:52.984Z,12.30
2022-11-16T23:16:52.945Z,12.30
2022-11-16T23:17:52.890Z,12.36
2022-11-16T23:18:52.841Z,12.37
2022-11-16T23:19:52.801Z,12.40
2022-11-16T23:20:52.753Z,12.32
2022-11-16T23:22:36.089Z,12.37
2022-11-16T23:23:36.332Z,12.39
2022-11-16T23:24:36.106Z,12.33
2022-11-16T23:25:35.946Z,12.33
2022-11-16T23:26:35.899Z,12.37
2022-11-16T23:27:35.852Z,12.43
2022-11-16T23:28:35.806Z,12.39
2022-11-16T23:29:35.762Z,12.47
2022-11-16T23:30:35.714Z,12.35
2022-11-16T23:31:35.670Z,12.47
2022-11-16T23:32:35.620Z,12.48
2022-11-16T23:33:35.920Z,12.35
2022-11-16T23:34:35.529Z,12.39
2022-11-16T23:35:35.483Z,12.36
2022-11-16T23:36:35.435Z,12.39
2022-11-16T23:37:35.391Z,12.43
2022-11-16T23:38:35.345Z,12.37
2022-11-16T23:39:35.302Z,12.29
2022-11-16T23:40:35.359Z,12.33
2022-11-16T23:41:35.205Z,12.33
2022-11-16T23:42:35.160Z,12.32
2022-11-16T23:43:35.585Z,12.32
2022-11-16T23:44:35.064Z,12.30
2022-11-16T23:45:35.030Z,12.39
2022-11-16T23:46:34.974Z,12.32
2022-11-16T23:47:34.927Z,12.21
2022-11-16T23:48:34.879Z,12.23
2022-11-16T23:49:34.833Z,12.29
2022-11-16T23:50:34.786Z,12.28
2022-11-16T23:51:34.742Z,12.17
2022-11-16T23:52:34.695Z,12.18
2022-11-16T23:53:35.042Z,12.23
2022-11-16T23:54:34.605Z,12.20
2022-11-16T23:55:34.556Z,12.17
2022-11-16T23:56:34.619Z,12.21
2022-11-16T23:57:34.608Z,12.15
2022-11-16T23:58:34.441Z,12.14
